Time;durP1;ratioP1;P1;durP2;ratioP2;P2;SDS_P1;SDS_P2;PMS_P1;PMS_P2;Temp;Humidity;BMP_temperature;BMP_pressure;BME280_temperature;BME280_humidity;BME280_pressure;Samples;Min_cycle;Max_cycle;Signal;HPM_P1;HPM_P2
2021/03/31 00:01:33;;;;;;;;;;;19.90;50.80;;;;;;4975346;28;19981;-72
2021/03/31 00:03:59;;;;;;;;;;;19.80;50.90;;;;;;4963630;28;19929;-73
2021/03/31 00:06:25;;;;;;;;;;;19.80;50.80;;;;;;4973849;28;19925;-72
2021/03/31 00:08:52;;;;;;;;;;;19.80;50.70;;;;;;4976298;28;19933;-72
2021/03/31 00:11:18;;;;;;;;;;;19.90;50.80;;;;;;4974543;28;19933;-73
2021/03/31 00:13:44;;;;;;;;;;;19.90;50.70;;;;;;4974329;28;19977;-73
2021/03/31 00:16:10;;;;;;;;;;;19.90;50.60;;;;;;4963108;28;19932;-73
2021/03/31 00:18:36;;;;;;;;;;;19.90;50.50;;;;;;4971070;28;19996;-72
2021/03/31 00:21:02;;;;;;;;;;;19.90;50.40;;;;;;4976057;28;19933;-72
2021/03/31 00:23:28;;;;;;;;;;;19.90;50.30;;;;;;4975122;28;19930;-73
2021/03/31 00:25:55;;;;;;;;;;;19.90;50.40;;;;;;4975353;28;19932;-72
2021/03/31 00:28:21;;;;;;;;;;;19.90;50.40;;;;;;4969153;28;20314;-73
2021/03/31 00:30:47;;;;;;;;;;;19.90;50.30;;;;;;4973633;28;19929;-72
2021/03/31 00:33:13;;;;;;;;;;;19.90;50.40;;;;;;4973555;28;19926;-73
2021/03/31 00:35:39;;;;;;;;;;;19.90;50.30;;;;;;4975829;28;20377;-72
2021/03/31 00:38:06;;;;;;;;;;;19.90;50.30;;;;;;4974553;28;20322;-73
2021/03/31 00:40:34;;;;;;;;;;;19.80;50.30;;;;;;4975368;28;19926;-71
2021/03/31 00:43:01;;;;;;;;;;;19.80;50.20;;;;;;4972504;28;19926;-72
2021/03/31 00:45:27;;;;;;;;;;;19.80;50.20;;;;;;4963080;28;20294;-73
2021/03/31 00:47:53;;;;;;;;;;;19.90;50.30;;;;;;4975229;28;19926;-72
2021/03/31 00:50:19;;;;;;;;;;;19.80;50.10;;;;;;4962545;28;19926;-72
2021/03/31 00:52:45;;;;;;;;;;;19.90;50.30;;;;;;4965186;28;19933;-73
2021/03/31 00:55:12;;;;;;;;;;;19.90;50.20;;;;;;4974265;28;19926;-73
2021/03/31 00:57:38;;;;;;;;;;;19.90;50.20;;;;;;4972551;28;19932;-72
2021/03/31 01:00:05;;;;;;;;;;;19.90;50.10;;;;;;4972841;28;19925;-72
2021/03/31 01:02:31;;;;;;;;;;;19.80;50.00;;;;;;4975057;28;19925;-72
2021/03/31 01:04:57;;;;;;;;;;;19.90;50.10;;;;;;4978344;28;19926;-72
2021/03/31 01:07:23;;;;;;;;;;;19.90;50.00;;;;;;4973744;28;19933;-72
2021/03/31 01:09:49;;;;;;;;;;;19.80;50.70;;;;;;4972338;28;20354;-73
2021/03/31 01:12:19;;;;;;;;;;;19.80;49.90;;;;;;4972913;28;24566;-73
2021/03/31 01:14:49;;;;;;;;;;;19.80;49.70;;;;;;4974295;28;19933;-72
2021/03/31 01:17:17;;;;;;;;;;;19.90;49.70;;;;;;4975075;28;19930;-73
2021/03/31 01:20:02;;;;;;;;;;;19.90;49.50;;;;;;4972156;28;19926;-72
2021/03/31 01:22:47;;;;;;;;;;;19.90;49.50;;;;;;4973285;28;19926;-72
2021/03/31 01:25:14;;;;;;;;;;;19.90;49.30;;;;;;4968857;28;19926;-73
2021/03/31 01:27:47;;;;;;;;;;;20.00;49.20;;;;;;4973861;28;20885;-72
2021/03/31 01:30:16;;;;;;;;;;;20.00;49.20;;;;;;4970323;28;19926;-72
2021/03/31 01:32:50;;;;;;;;;;;20.00;49.10;;;;;;4973509;28;19937;-72
2021/03/31 01:35:17;;;;;;;;;;;20.00;49.00;;;;;;4973475;28;20588;-73
2021/03/31 01:37:43;;;;;;;;;;;20.00;49.00;;;;;;4975154;28;20390;-73
2021/03/31 01:40:10;;;;;;;;;;;20.00;48.90;;;;;;4972879;28;19984;-73
2021/03/31 01:42:37;;;;;;;;;;;20.00;49.00;;;;;;4974102;28;20756;-72
2021/03/31 01:45:04;;;;;;;;;;;20.00;49.00;;;;;;4971085;28;20329;-73
2021/03/31 01:47:30;;;;;;;;;;;20.00;49.10;;;;;;4973656;28;19926;-72
2021/03/31 01:49:56;;;;;;;;;;;19.90;49.10;;;;;;4974998;28;19926;-73
2021/03/31 01:52:23;;;;;;;;;;;19.90;49.10;;;;;;4974835;28;19946;-72
2021/03/31 01:54:49;;;;;;;;;;;19.90;49.10;;;;;;4971994;28;19930;-72
2021/03/31 01:57:15;;;;;;;;;;;19.90;49.10;;;;;;4961498;28;20928;-73
2021/03/31 01:59:41;;;;;;;;;;;19.90;49.10;;;;;;4962453;28;20326;-72
2021/03/31 02:02:09;;;;;;;;;;;19.90;49.10;;;;;;4974368;28;19926;-72
2021/03/31 02:04:35;;;;;;;;;;;19.90;49.10;;;;;;4994008;28;19913;-72
2021/03/31 02:07:03;;;;;;;;;;;19.80;49.00;;;;;;5004985;28;19924;-74
2021/03/31 02:09:29;;;;;;;;;;;19.90;49.10;;;;;;5016564;28;19945;-73
2021/03/31 02:11:56;;;;;;;;;;;19.90;49.00;;;;;;5014242;28;20452;-73
2021/03/31 02:14:22;;;;;;;;;;;19.90;48.90;;;;;;4966987;28;19926;-72
2021/03/31 02:16:49;;;;;;;;;;;19.90;48.90;;;;;;4975243;28;19926;-72
2021/03/31 02:19:16;;;;;;;;;;;19.90;48.80;;;;;;4962073;28;20306;-72
2021/03/31 02:21:42;;;;;;;;;;;19.90;48.70;;;;;;4983617;28;19959;-72
2021/03/31 02:24:09;;;;;;;;;;;19.90;48.70;;;;;;4956899;28;20013;-72
2021/03/31 02:26:36;;;;;;;;;;;19.90;48.60;;;;;;4968940;28;19932;-72
2021/03/31 02:29:02;;;;;;;;;;;19.90;49.40;;;;;;4985444;28;19960;-72
2021/03/31 02:31:28;;;;;;;;;;;19.90;48.80;;;;;;4951197;28;19981;-73
2021/03/31 02:33:54;;;;;;;;;;;19.80;48.70;;;;;;4986767;28;19925;-72
2021/03/31 02:36:20;;;;;;;;;;;19.80;48.70;;;;;;4962214;28;19933;-72
2021/03/31 02:38:47;;;;;;;;;;;19.80;48.80;;;;;;4972568;28;19936;-73
2021/03/31 02:41:13;;;;;;;;;;;19.80;48.80;;;;;;4973142;28;19930;-72
2021/03/31 02:43:43;;;;;;;;;;;19.70;48.80;;;;;;4968531;28;19964;-72
2021/03/31 02:46:09;;;;;;;;;;;19.70;48.80;;;;;;4972484;28;20500;-73
2021/03/31 02:48:35;;;;;;;;;;;19.70;48.80;;;;;;4977601;28;19926;-72
2021/03/31 02:51:01;;;;;;;;;;;19.70;50.70;;;;;;4977985;28;19929;-72
2021/03/31 02:53:27;;;;;;;;;;;19.70;50.50;;;;;;4977110;28;19933;-72
2021/03/31 02:55:53;;;;;;;;;;;19.70;51.10;;;;;;4975524;28;19929;-72
2021/03/31 02:58:19;;;;;;;;;;;19.60;50.60;;;;;;4974676;28;19976;-72
2021/03/31 03:00:46;;;;;;;;;;;19.60;50.70;;;;;;4976632;28;19925;-73
2021/03/31 03:03:12;;;;;;;;;;;19.60;50.70;;;;;;4965780;28;20412;-72
2021/03/31 03:05:38;;;;;;;;;;;19.60;50.60;;;;;;4975630;28;20059;-72
2021/03/31 03:08:04;;;;;;;;;;;19.60;50.50;;;;;;4976586;28;20409;-72
2021/03/31 03:10:30;;;;;;;;;;;19.70;50.50;;;;;;4965517;28;19929;-72
2021/03/31 03:12:57;;;;;;;;;;;19.60;50.40;;;;;;4977461;28;19929;-72
2021/03/31 03:15:23;;;;;;;;;;;19.70;50.10;;;;;;4947066;28;19926;-72
2021/03/31 03:17:50;;;;;;;;;;;19.70;49.40;;;;;;4975607;28;19933;-72
2021/03/31 03:20:16;;;;;;;;;;;19.80;48.70;;;;;;4974856;28;19932;-72
2021/03/31 03:22:43;;;;;;;;;;;19.80;48.50;;;;;;4977515;28;20649;-72
2021/03/31 03:25:09;;;;;;;;;;;19.90;48.10;;;;;;4963431;28;19926;-71
2021/03/31 03:27:36;;;;;;;;;;;20.00;47.90;;;;;;4975236;28;19925;-72
2021/03/31 03:30:03;;;;;;;;;;;20.00;47.80;;;;;;4975563;28;20445;-72
2021/03/31 03:32:30;;;;;;;;;;;20.00;47.70;;;;;;4974480;28;19926;-72
2021/03/31 03:34:57;;;;;;;;;;;20.00;47.50;;;;;;4977146;28;20011;-71
2021/03/31 03:37:23;;;;;;;;;;;20.00;47.90;;;;;;4975413;28;19989;-72
2021/03/31 03:39:49;;;;;;;;;;;20.00;47.50;;;;;;4975880;28;20487;-72
2021/03/31 03:42:15;;;;;;;;;;;20.00;47.60;;;;;;4977912;28;19976;-72
2021/03/31 03:44:41;;;;;;;;;;;19.90;47.50;;;;;;4976458;28;19929;-71
2021/03/31 03:47:07;;;;;;;;;;;19.90;47.60;;;;;;4971845;28;19926;-71
2021/03/31 03:49:35;;;;;;;;;;;19.90;47.60;;;;;;4974588;28;19932;-72
2021/03/31 03:52:02;;;;;;;;;;;19.90;47.80;;;;;;4977500;28;20019;-74
2021/03/31 03:54:28;;;;;;;;;;;19.90;47.70;;;;;;4974745;28;20531;-72
2021/03/31 03:56:54;;;;;;;;;;;19.90;47.70;;;;;;4975579;28;19957;-71
2021/03/31 03:59:21;;;;;;;;;;;19.90;47.90;;;;;;4973191;28;19949;-71
2021/03/31 04:01:47;;;;;;;;;;;19.90;48.00;;;;;;4961969;28;19972;-71
2021/03/31 04:04:13;;;;;;;;;;;19.80;48.00;;;;;;4974654;28;19925;-71
2021/03/31 04:06:39;;;;;;;;;;;19.90;48.60;;;;;;4973462;28;19926;-71
2021/03/31 04:09:06;;;;;;;;;;;19.90;48.50;;;;;;4977403;28;19933;-71
2021/03/31 04:11:32;;;;;;;;;;;19.90;48.70;;;;;;4975402;28;19926;-71
2021/03/31 04:13:58;;;;;;;;;;;19.90;48.70;;;;;;4975431;28;19926;-72
2021/03/31 04:16:24;;;;;;;;;;;19.90;48.60;;;;;;4974146;28;19933;-72
2021/03/31 04:18:50;;;;;;;;;;;20.00;49.00;;;;;;4975891;28;19926;-72
2021/03/31 04:21:16;;;;;;;;;;;20.00;48.90;;;;;;4964667;28;19933;-72
2021/03/31 04:23:42;;;;;;;;;;;20.10;49.20;;;;;;4974343;28;20405;-71
2021/03/31 04:26:09;;;;;;;;;;;20.00;49.60;;;;;;4976953;28;19925;-72
2021/03/31 04:28:36;;;;;;;;;;;20.00;49.80;;;;;;4974087;28;19929;-72
2021/03/31 04:31:02;;;;;;;;;;;20.00;49.80;;;;;;4975668;28;21467;-72
2021/03/31 04:33:28;;;;;;;;;;;20.00;49.80;;;;;;4976397;28;20053;-73
2021/03/31 04:35:54;;;;;;;;;;;20.00;50.00;;;;;;4965428;28;19953;-72
2021/03/31 04:38:20;;;;;;;;;;;20.00;51.00;;;;;;4973837;28;19945;-72
2021/03/31 04:40:53;;;;;;;;;;;19.90;51.00;;;;;;4976346;28;20365;-72
2021/03/31 04:43:20;;;;;;;;;;;19.80;50.40;;;;;;4970567;28;19937;-71
2021/03/31 04:45:46;;;;;;;;;;;19.80;49.20;;;;;;4973669;28;19933;-72
2021/03/31 04:48:12;;;;;;;;;;;19.80;48.30;;;;;;4973678;28;19932;-72
2021/03/31 04:50:38;;;;;;;;;;;19.70;48.00;;;;;;4975542;28;19930;-72
2021/03/31 04:53:04;;;;;;;;;;;19.70;47.80;;;;;;4974140;28;19929;-71
2021/03/31 04:55:31;;;;;;;;;;;19.70;47.80;;;;;;4971101;28;20000;-71
2021/03/31 04:57:57;;;;;;;;;;;19.70;47.80;;;;;;4966766;28;19926;-72
2021/03/31 05:00:24;;;;;;;;;;;19.70;47.40;;;;;;4973259;28;20928;-71
2021/03/31 05:02:50;;;;;;;;;;;19.70;47.10;;;;;;4976224;28;20325;-71
2021/03/31 05:05:16;;;;;;;;;;;19.70;47.00;;;;;;4966946;28;19926;-72
2021/03/31 05:07:42;;;;;;;;;;;19.80;46.90;;;;;;4970884;28;19925;-72
2021/03/31 05:10:08;;;;;;;;;;;19.80;47.00;;;;;;4969538;28;19926;-73
2021/03/31 05:12:34;;;;;;;;;;;19.80;46.80;;;;;;4973287;28;20393;-72
2021/03/31 05:15:00;;;;;;;;;;;19.80;46.50;;;;;;4971580;28;19926;-72
2021/03/31 05:17:27;;;;;;;;;;;19.80;46.90;;;;;;4972944;28;20035;-71
2021/03/31 05:19:53;;;;;;;;;;;19.80;47.00;;;;;;4972212;28;19930;-72
2021/03/31 05:22:19;;;;;;;;;;;19.70;46.90;;;;;;4971561;28;21752;-69
2021/03/31 05:24:45;;;;;;;;;;;19.80;47.00;;;;;;4965298;28;19976;-71
2021/03/31 05:27:11;;;;;;;;;;;19.80;47.20;;;;;;4965251;28;19937;-72
2021/03/31 05:29:37;;;;;;;;;;;19.80;47.00;;;;;;4963982;28;19925;-71
2021/03/31 05:32:04;;;;;;;;;;;19.80;47.10;;;;;;4968454;28;19976;-72
2021/03/31 05:34:30;;;;;;;;;;;19.80;47.40;;;;;;4969623;28;19980;-72
2021/03/31 05:36:56;;;;;;;;;;;19.80;47.40;;;;;;4969793;28;19957;-72
2021/03/31 05:39:22;;;;;;;;;;;19.80;47.40;;;;;;4971559;28;19926;-73
2021/03/31 05:41:49;;;;;;;;;;;19.80;47.30;;;;;;4967119;28;19925;-72
2021/03/31 05:44:15;;;;;;;;;;;19.70;47.10;;;;;;4966422;28;20293;-73
2021/03/31 05:46:41;;;;;;;;;;;19.70;47.10;;;;;;4971902;28;20309;-72
2021/03/31 05:49:07;;;;;;;;;;;19.70;47.50;;;;;;4951226;28;19926;-72
2021/03/31 05:51:34;;;;;;;;;;;19.70;48.40;;;;;;4970467;28;19932;-71
2021/03/31 05:54:00;;;;;;;;;;;19.70;48.90;;;;;;4986795;28;19913;-73
2021/03/31 05:56:26;;;;;;;;;;;19.70;49.30;;;;;;4966668;28;19949;-72
2021/03/31 05:58:52;;;;;;;;;;;19.70;49.70;;;;;;4999967;28;19964;-73
2021/03/31 06:01:18;;;;;;;;;;;19.70;49.60;;;;;;4998338;28;19922;-73
2021/03/31 06:03:44;;;;;;;;;;;19.60;50.60;;;;;;4970948;28;19925;-72
2021/03/31 06:06:10;;;;;;;;;;;19.60;48.80;;;;;;4979360;28;19932;-72
2021/03/31 06:08:37;;;;;;;;;;;19.60;49.30;;;;;;4975189;28;19926;-73
2021/03/31 06:11:03;;;;;;;;;;;19.60;49.30;;;;;;4966357;28;19925;-72
2021/03/31 06:13:44;;;;;;;;;;;19.60;49.40;;;;;;4970582;28;20298;-72
2021/03/31 06:16:12;;;;;;;;;;;19.60;47.00;;;;;;4974740;28;19925;-72
2021/03/31 06:18:38;;;;;;;;;;;19.60;46.90;;;;;;4975642;28;19934;-71
2021/03/31 06:21:05;;;;;;;;;;;19.60;47.00;;;;;;4959840;28;19926;-71
2021/03/31 06:23:48;;;;;;;;;;;19.60;47.20;;;;;;4969549;28;20023;-72
2021/03/31 06:26:23;;;;;;;;;;;19.60;47.20;;;;;;4969064;28;19929;-72
2021/03/31 06:28:59;;;;;;;;;;;19.50;47.20;;;;;;4971215;28;19933;-72
2021/03/31 06:31:28;;;;;;;;;;;19.50;47.30;;;;;;4968570;28;20373;-72
2021/03/31 06:33:54;;;;;;;;;;;19.50;47.70;;;;;;4966902;28;19932;-72
2021/03/31 06:36:32;;;;;;;;;;;19.60;48.10;;;;;;4969824;28;19930;-72
2021/03/31 06:38:58;;;;;;;;;;;19.50;48.60;;;;;;4957600;28;20024;-72
2021/03/31 06:41:29;;;;;;;;;;;19.50;49.30;;;;;;4969370;28;19926;-73
2021/03/31 06:44:01;;;;;;;;;;;19.50;49.80;;;;;;4968614;28;20302;-72
2021/03/31 06:46:34;;;;;;;;;;;19.50;50.10;;;;;;4971183;28;19960;-72
2021/03/31 06:49:00;;;;;;;;;;;19.50;52.10;;;;;;4966612;28;20345;-72
2021/03/31 06:51:26;;;;;;;;;;;19.50;56.30;;;;;;4971278;28;20358;-72
2021/03/31 06:53:53;;;;;;;;;;;19.50;54.70;;;;;;4968015;28;19933;-73
2021/03/31 06:56:26;;;;;;;;;;;19.50;54.70;;;;;;4968604;28;19984;-72
2021/03/31 06:58:55;;;;;;;;;;;19.50;54.70;;;;;;4968545;28;20021;-72
2021/03/31 07:01:22;;;;;;;;;;;19.50;54.70;;;;;;4958710;28;20315;-72
2021/03/31 07:03:48;;;;;;;;;;;19.50;54.90;;;;;;4970154;28;20009;-72
2021/03/31 07:06:17;;;;;;;;;;;19.50;55.50;;;;;;4961239;28;19929;-72
2021/03/31 07:08:43;;;;;;;;;;;19.50;56.10;;;;;;4968912;28;19975;-72
2021/03/31 07:11:09;;;;;;;;;;;19.50;57.50;;;;;;4969102;28;19938;-71
2021/03/31 07:13:36;;;;;;;;;;;19.60;57.00;;;;;;4949643;28;19933;-72
2021/03/31 07:16:03;;;;;;;;;;;19.60;57.50;;;;;;4964928;28;19926;-72
2021/03/31 07:18:30;;;;;;;;;;;19.60;58.90;;;;;;4970829;28;19926;-72
2021/03/31 07:20:56;;;;;;;;;;;19.60;52.50;;;;;;4970562;28;19921;-72
2021/03/31 07:23:22;;;;;;;;;;;19.70;52.50;;;;;;4961311;28;19986;-72
2021/03/31 07:25:48;;;;;;;;;;;19.70;52.50;;;;;;4973256;28;19934;-72
2021/03/31 07:28:16;;;;;;;;;;;19.70;52.40;;;;;;4949475;28;19925;-72
2021/03/31 07:30:43;;;;;;;;;;;19.70;52.30;;;;;;4970500;28;19925;-71
2021/03/31 07:33:13;;;;;;;;;;;19.70;52.20;;;;;;4967151;28;19925;-72
2021/03/31 07:35:39;;;;;;;;;;;19.70;52.30;;;;;;4970842;28;19932;-71
2021/03/31 07:38:05;;;;;;;;;;;19.70;52.50;;;;;;4974397;28;19926;-72
2021/03/31 07:40:31;;;;;;;;;;;19.60;52.70;;;;;;4974699;28;20012;-72
2021/03/31 07:42:59;;;;;;;;;;;19.60;52.70;;;;;;4971584;28;19925;-72
2021/03/31 07:45:25;;;;;;;;;;;19.60;52.90;;;;;;4971205;28;19926;-72
2021/03/31 07:47:52;;;;;;;;;;;19.60;53.20;;;;;;4963290;28;19926;-71
2021/03/31 07:50:18;;;;;;;;;;;19.60;53.50;;;;;;4970922;28;19929;-72
2021/03/31 07:52:47;;;;;;;;;;;19.60;53.60;;;;;;4971790;28;19936;-72
2021/03/31 07:55:23;;;;;;;;;;;19.60;53.70;;;;;;4970597;28;19980;-72
2021/03/31 07:57:49;;;;;;;;;;;19.60;53.80;;;;;;4971789;28;19926;-72
2021/03/31 08:00:19;;;;;;;;;;;19.60;53.80;;;;;;4971442;28;20317;-72
2021/03/31 08:02:45;;;;;;;;;;;19.60;54.10;;;;;;4969515;28;19932;-71
2021/03/31 08:05:12;;;;;;;;;;;19.60;54.20;;;;;;4972989;28;19933;-72
2021/03/31 08:07:38;;;;;;;;;;;19.60;54.40;;;;;;4972245;28;19926;-72
2021/03/31 08:10:19;;;;;;;;;;;19.60;54.80;;;;;;4971913;28;19925;-72
2021/03/31 08:12:45;;;;;;;;;;;19.60;56.00;;;;;;4972437;28;19932;-72
2021/03/31 08:15:11;;;;;;;;;;;19.70;56.00;;;;;;4973154;28;19929;-71
2021/03/31 08:17:38;;;;;;;;;;;19.70;56.40;;;;;;4962843;28;19926;-71
2021/03/31 08:20:05;;;;;;;;;;;19.70;56.00;;;;;;4970843;28;20311;-71
2021/03/31 08:22:33;;;;;;;;;;;19.70;56.30;;;;;;4969865;28;19983;-74
2021/03/31 08:25:00;;;;;;;;;;;19.70;56.20;;;;;;4944279;28;20893;-71
2021/03/31 08:27:27;;;;;;;;;;;19.70;56.60;;;;;;4977265;28;19930;-71
2021/03/31 08:29:54;;;;;;;;;;;19.70;56.80;;;;;;4963573;28;19930;-72
2021/03/31 08:32:21;;;;;;;;;;;19.70;57.20;;;;;;4968142;28;20394;-72
2021/03/31 08:34:47;;;;;;;;;;;19.70;57.40;;;;;;4972925;28;19929;-71
2021/03/31 08:37:20;;;;;;;;;;;19.60;57.80;;;;;;4961951;28;20646;-72
2021/03/31 08:39:47;;;;;;;;;;;19.60;57.90;;;;;;4972351;28;19930;-71
2021/03/31 08:42:13;;;;;;;;;;;19.60;58.80;;;;;;4971666;28;20001;-72
2021/03/31 08:44:40;;;;;;;;;;;19.60;59.60;;;;;;4962657;28;20638;-71
2021/03/31 08:47:10;;;;;;;;;;;19.60;67.10;;;;;;4974397;28;20068;-72
2021/03/31 08:49:36;;;;;;;;;;;19.60;62.30;;;;;;4997685;28;19953;-74
2021/03/31 08:52:03;;;;;;;;;;;19.60;62.00;;;;;;5001846;28;19941;-72
2021/03/31 08:54:32;;;;;;;;;;;19.60;61.60;;;;;;5001244;28;19920;-71
2021/03/31 08:56:59;;;;;;;;;;;19.60;53.90;;;;;;4982068;28;20029;-71
2021/03/31 08:59:29;;;;;;;;;;;19.70;54.00;;;;;;4981190;28;20309;-71
2021/03/31 09:01:55;;;;;;;;;;;19.60;54.00;;;;;;4980759;28;19925;-71
2021/03/31 09:04:22;;;;;;;;;;;19.60;54.10;;;;;;4935957;28;19922;-71
2021/03/31 09:06:48;;;;;;;;;;;19.60;53.90;;;;;;4976691;28;19956;-71
2021/03/31 09:09:14;;;;;;;;;;;19.60;54.00;;;;;;4977223;28;19929;-71
2021/03/31 09:11:40;;;;;;;;;;;19.60;53.80;;;;;;4946323;28;19925;-71
2021/03/31 09:14:20;;;;;;;;;;;19.60;54.80;;;;;;4953896;28;19926;-71
2021/03/31 09:16:49;;;;;;;;;;;19.60;54.80;;;;;;4966966;28;19926;-71
2021/03/31 09:19:16;;;;;;;;;;;19.70;54.90;;;;;;4967228;28;19926;-71
2021/03/31 09:21:42;;;;;;;;;;;19.70;54.90;;;;;;4968467;28;21369;-71
2021/03/31 09:24:13;;;;;;;;;;;19.80;55.00;;;;;;4971834;28;20437;-72
2021/03/31 09:26:39;;;;;;;;;;;19.80;55.00;;;;;;4969942;28;19952;-70
2021/03/31 09:29:12;;;;;;;;;;;19.80;55.00;;;;;;4969846;28;19925;-70
2021/03/31 09:31:39;;;;;;;;;;;19.90;55.10;;;;;;4961009;28;19930;-71
2021/03/31 09:34:05;;;;;;;;;;;20.00;55.20;;;;;;4968150;28;19936;-71
2021/03/31 09:36:31;;;;;;;;;;;20.00;55.20;;;;;;4969533;28;19932;-71
2021/03/31 09:38:59;;;;;;;;;;;20.00;55.10;;;;;;4972366;28;19930;-71
2021/03/31 09:41:25;;;;;;;;;;;20.00;55.20;;;;;;4967162;28;19953;-71
2021/03/31 09:43:51;;;;;;;;;;;20.00;55.20;;;;;;4968713;28;19926;-71
2021/03/31 09:46:22;;;;;;;;;;;19.90;55.10;;;;;;4972445;28;19930;-71
2021/03/31 09:48:50;;;;;;;;;;;19.90;55.10;;;;;;4973838;28;19950;-71
2021/03/31 09:51:16;;;;;;;;;;;19.90;55.30;;;;;;4970090;28;19999;-72
2021/03/31 09:53:43;;;;;;;;;;;19.90;55.50;;;;;;4969677;28;19926;-71
2021/03/31 09:56:12;;;;;;;;;;;19.90;56.30;;;;;;4971912;28;19926;-72
2021/03/31 09:58:38;;;;;;;;;;;19.80;56.40;;;;;;4970971;28;19980;-72
2021/03/31 10:01:04;;;;;;;;;;;19.90;57.10;;;;;;4970760;28;19932;-71
2021/03/31 10:03:31;;;;;;;;;;;19.90;57.60;;;;;;4968620;28;21011;-71
2021/03/31 10:05:58;;;;;;;;;;;19.90;57.60;;;;;;4967191;28;20057;-71
2021/03/31 10:08:24;;;;;;;;;;;19.90;58.00;;;;;;4970927;28;19929;-72
2021/03/31 10:10:50;;;;;;;;;;;19.90;58.40;;;;;;4971034;28;19925;-71
2021/03/31 10:13:16;;;;;;;;;;;19.90;58.70;;;;;;4967492;28;19926;-71
2021/03/31 10:15:43;;;;;;;;;;;19.90;59.10;;;;;;4969453;28;19933;-71
2021/03/31 10:18:10;;;;;;;;;;;19.90;59.20;;;;;;4972848;28;20692;-71
2021/03/31 10:20:42;;;;;;;;;;;19.90;59.80;;;;;;4969865;28;19925;-71
2021/03/31 10:23:21;;;;;;;;;;;19.90;59.80;;;;;;4956990;28;19972;-71
2021/03/31 10:25:47;;;;;;;;;;;19.90;60.50;;;;;;4966484;28;19930;-71
2021/03/31 10:28:28;;;;;;;;;;;19.90;60.80;;;;;;4969971;28;19930;-71
2021/03/31 10:30:54;;;;;;;;;;;20.00;61.70;;;;;;4970168;28;20330;-71
2021/03/31 10:33:20;;;;;;;;;;;20.00;62.80;;;;;;4966800;28;19926;-72
2021/03/31 10:35:49;;;;;;;;;;;19.90;63.00;;;;;;4969110;28;19925;-71
2021/03/31 10:38:25;;;;;;;;;;;20.00;64.60;;;;;;4970178;28;20378;-72
2021/03/31 10:41:22;;;;;;;;;;;20.00;64.10;;;;;;4950398;28;20408;-71
2021/03/31 10:47:01;;;;;;;;;;;20.00;64.00;;;;;;4957781;28;19925;-71
2021/03/31 10:49:32;;;;;;;;;;;20.00;64.20;;;;;;4962032;28;19930;-72
2021/03/31 10:52:02;;;;;;;;;;;20.00;64.90;;;;;;4967666;28;19938;-73
2021/03/31 10:54:30;;;;;;;;;;;20.00;65.60;;;;;;4970266;28;20389;-72
2021/03/31 10:57:05;;;;;;;;;;;20.10;66.00;;;;;;4972526;28;19926;-72
2021/03/31 10:59:31;;;;;;;;;;;20.10;66.40;;;;;;4968895;28;20317;-70
2021/03/31 11:01:57;;;;;;;;;;;20.10;65.70;;;;;;4970377;28;19922;-71
2021/03/31 11:04:23;;;;;;;;;;;20.10;66.20;;;;;;4967513;28;19980;-71
2021/03/31 11:06:49;;;;;;;;;;;20.10;66.00;;;;;;4967628;28;19925;-70
2021/03/31 11:09:15;;;;;;;;;;;20.20;67.00;;;;;;4970858;28;19989;-71
2021/03/31 11:11:42;;;;;;;;;;;20.20;66.90;;;;;;4975038;28;19922;-70
2021/03/31 11:14:08;;;;;;;;;;;20.10;67.00;;;;;;4970159;28;19926;-71
2021/03/31 11:16:34;;;;;;;;;;;20.10;67.60;;;;;;4974512;28;19934;-70
2021/03/31 11:19:07;;;;;;;;;;;20.10;68.00;;;;;;4974825;28;19928;-70
2021/03/31 11:27:01;;;;;;;;;;;20.00;67.60;;;;;;4972860;28;19924;-72
2021/03/31 11:29:27;;;;;;;;;;;19.90;68.50;;;;;;4974857;28;20393;-70
2021/03/31 11:31:53;;;;;;;;;;;19.90;68.30;;;;;;4970669;28;19926;-71
2021/03/31 11:34:19;;;;;;;;;;;19.90;68.20;;;;;;4974928;28;19930;-70
2021/03/31 11:36:45;;;;;;;;;;;19.90;68.00;;;;;;4975988;28;19925;-71
2021/03/31 11:39:11;;;;;;;;;;;19.90;67.90;;;;;;4974658;28;20338;-71
2021/03/31 11:41:38;;;;;;;;;;;20.00;67.20;;;;;;4972607;28;19926;-70
2021/03/31 11:44:05;;;;;;;;;;;20.00;67.00;;;;;;4943010;28;19957;-70
2021/03/31 11:46:31;;;;;;;;;;;20.10;67.10;;;;;;4974388;28;19980;-70
2021/03/31 11:48:59;;;;;;;;;;;20.00;67.00;;;;;;4973395;28;20316;-71
2021/03/31 11:51:25;;;;;;;;;;;20.00;66.70;;;;;;4968891;28;19926;-70
2021/03/31 11:53:51;;;;;;;;;;;20.00;66.70;;;;;;4970686;28;19933;-70
2021/03/31 11:56:17;;;;;;;;;;;20.10;66.70;;;;;;4949346;28;20306;-71
2021/03/31 11:58:43;;;;;;;;;;;20.10;66.50;;;;;;4962624;28;19922;-70
2021/03/31 12:01:10;;;;;;;;;;;20.10;66.20;;;;;;4939429;28;19926;-70
2021/03/31 12:03:36;;;;;;;;;;;20.10;66.30;;;;;;4968592;28;19926;-70
2021/03/31 12:06:02;;;;;;;;;;;20.10;66.20;;;;;;4985178;28;19933;-70
2021/03/31 12:08:28;;;;;;;;;;;20.10;66.20;;;;;;4958037;28;19926;-69
2021/03/31 12:10:54;;;;;;;;;;;20.10;66.00;;;;;;4971641;28;19957;-70
2021/03/31 12:13:20;;;;;;;;;;;20.00;63.30;;;;;;4981545;28;19929;-71
2021/03/31 12:15:46;;;;;;;;;;;20.00;62.60;;;;;;4960123;28;19914;-70
2021/03/31 12:18:12;;;;;;;;;;;20.00;62.30;;;;;;4998814;28;19920;-70
2021/03/31 12:20:38;;;;;;;;;;;19.90;61.80;;;;;;4999427;28;19936;-70
2021/03/31 12:23:06;;;;;;;;;;;20.00;61.30;;;;;;4991184;28;20415;-71
2021/03/31 12:25:34;;;;;;;;;;;19.90;61.00;;;;;;4977639;28;19929;-70
2021/03/31 12:28:01;;;;;;;;;;;19.90;60.40;;;;;;4977467;28;20916;-70
2021/03/31 12:30:27;;;;;;;;;;;19.90;59.90;;;;;;4971062;28;20045;-71
2021/03/31 12:32:53;;;;;;;;;;;19.90;60.10;;;;;;4969003;28;19929;-70
2021/03/31 12:35:20;;;;;;;;;;;19.90;59.80;;;;;;4976247;28;20394;-71
2021/03/31 12:37:46;;;;;;;;;;;19.90;59.90;;;;;;4971456;28;19933;-71
2021/03/31 12:40:12;;;;;;;;;;;19.90;59.70;;;;;;4990907;28;19926;-70
2021/03/31 12:42:38;;;;;;;;;;;19.90;60.00;;;;;;4976861;28;19921;-70
2021/03/31 12:45:05;;;;;;;;;;;20.00;58.90;;;;;;4974234;28;19926;-70
2021/03/31 12:47:32;;;;;;;;;;;20.00;58.70;;;;;;4967870;28;20421;-71
2021/03/31 12:49:58;;;;;;;;;;;20.00;58.50;;;;;;4968548;28;19938;-71
2021/03/31 12:52:28;;;;;;;;;;;20.10;58.60;;;;;;4969823;28;19929;-71
2021/03/31 12:54:58;;;;;;;;;;;20.10;58.60;;;;;;4960768;28;19965;-71
2021/03/31 12:57:25;;;;;;;;;;;20.10;58.60;;;;;;4975052;28;19993;-71
2021/03/31 12:59:51;;;;;;;;;;;20.20;58.40;;;;;;4969454;28;20032;-71
2021/03/31 13:02:17;;;;;;;;;;;20.20;58.30;;;;;;4961996;28;20456;-70
2021/03/31 13:04:43;;;;;;;;;;;20.20;58.30;;;;;;4963115;28;20406;-71
2021/03/31 13:07:09;;;;;;;;;;;20.20;58.20;;;;;;4970242;28;19933;-71
2021/03/31 13:09:36;;;;;;;;;;;20.20;58.10;;;;;;4975495;28;19925;-71
2021/03/31 13:12:04;;;;;;;;;;;20.20;58.20;;;;;;4975784;28;19930;-71
2021/03/31 13:17:17;;;;;;;;;;;20.10;58.10;;;;;;4975024;28;20711;-71
2021/03/31 13:22:34;;;;;;;;;;;20.10;58.10;;;;;;4975958;28;20443;-71
2021/03/31 13:25:09;;;;;;;;;;;20.10;58.20;;;;;;4974099;28;19927;-71
2021/03/31 13:33:05;;;;;;;;;;;20.00;58.60;;;;;;4971707;28;19923;-70
2021/03/31 13:35:34;;;;;;;;;;;20.00;60.00;;;;;;4974593;28;19925;-71
2021/03/31 13:38:05;;;;;;;;;;;20.00;58.70;;;;;;4979393;28;19925;-70
2021/03/31 13:40:32;;;;;;;;;;;20.00;58.30;;;;;;4971156;28;20386;-71
2021/03/31 13:42:58;;;;;;;;;;;20.00;58.70;;;;;;4964387;28;19926;-73
2021/03/31 13:45:24;;;;;;;;;;;20.00;51.70;;;;;;4971219;28;19926;-70
2021/03/31 13:47:52;;;;;;;;;;;20.00;51.10;;;;;;4975323;28;19933;-70
2021/03/31 13:50:19;;;;;;;;;;;20.00;51.10;;;;;;4968524;28;19937;-70
2021/03/31 13:52:47;;;;;;;;;;;20.00;51.50;;;;;;4976083;28;19930;-70
2021/03/31 13:55:15;;;;;;;;;;;20.00;50.70;;;;;;4971201;28;20494;-71
2021/03/31 13:57:43;;;;;;;;;;;20.10;51.90;;;;;;4973794;28;19921;-71
2021/03/31 14:00:10;;;;;;;;;;;20.00;50.70;;;;;;4973407;28;19932;-71
2021/03/31 14:02:36;;;;;;;;;;;20.00;50.80;;;;;;4973488;28;19925;-70
2021/03/31 14:05:03;;;;;;;;;;;20.00;50.90;;;;;;4975297;28;20373;-70
2021/03/31 14:07:29;;;;;;;;;;;20.00;51.10;;;;;;4972576;28;19929;-70
2021/03/31 14:09:55;;;;;;;;;;;20.00;50.90;;;;;;4973160;28;19933;-70
2021/03/31 14:12:21;;;;;;;;;;;20.00;50.90;;;;;;4969702;28;19936;-71
2021/03/31 14:14:48;;;;;;;;;;;20.00;50.90;;;;;;4972473;28;19933;-70
2021/03/31 14:17:15;;;;;;;;;;;20.00;50.90;;;;;;4970319;28;19925;-71
2021/03/31 14:19:43;;;;;;;;;;;20.00;50.90;;;;;;4972250;28;20022;-71
2021/03/31 14:22:09;;;;;;;;;;;20.00;50.90;;;;;;4973499;28;19925;-71
2021/03/31 14:24:35;;;;;;;;;;;20.00;50.90;;;;;;4973673;28;19932;-70
2021/03/31 14:27:01;;;;;;;;;;;20.00;50.90;;;;;;4975382;28;19987;-71
2021/03/31 14:29:27;;;;;;;;;;;20.00;50.80;;;;;;4971775;28;20358;-70
2021/03/31 14:31:54;;;;;;;;;;;20.00;50.80;;;;;;4973306;28;19930;-71
2021/03/31 14:34:20;;;;;;;;;;;20.00;50.90;;;;;;4973355;28;19930;-71
2021/03/31 14:36:46;;;;;;;;;;;20.00;50.80;;;;;;4974072;28;19930;-70